sensor_id;sensor_type;location;lat;lon;timestamp;P1;durP1;ratioP1;P2;durP2;ratioP2
75589;SDS011;64169;47.240;11.312;2023-03-24T00:01:46;8.30;;;3.13;;
75589;SDS011;64169;47.240;11.312;2023-03-24T00:04:12;8.70;;;3.97;;
75589;SDS011;64169;47.240;11.312;2023-03-24T00:06:38;9.15;;;3.60;;
75589;SDS011;64169;47.240;11.312;2023-03-24T00:09:03;11.98;;;5.05;;
75589;SDS011;64169;47.240;11.312;2023-03-24T00:11:30;8.88;;;3.78;;
75589;SDS011;64169;47.240;11.312;2023-03-24T00:13:58;7.90;;;3.28;;
75589;SDS011;64169;47.240;11.312;2023-03-24T00:16:24;8.85;;;4.38;;
75589;SDS011;64169;47.240;11.312;2023-03-24T00:18:50;8.43;;;4.03;;
75589;SDS011;64169;47.240;11.312;2023-03-24T00:21:19;7.63;;;3.58;;
75589;SDS011;64169;47.240;11.312;2023-03-24T00:23:46;8.68;;;3.50;;
75589;SDS011;64169;47.240;11.312;2023-03-24T00:26:13;8.68;;;3.85;;
75589;SDS011;64169;47.240;11.312;2023-03-24T00:28:40;8.63;;;4.07;;
75589;SDS011;64169;47.240;11.312;2023-03-24T00:31:08;9.45;;;4.57;;
75589;SDS011;64169;47.240;11.312;2023-03-24T00:33:34;8.70;;;3.85;;
75589;SDS011;64169;47.240;11.312;2023-03-24T00:36:04;10.30;;;4.03;;
75589;SDS011;64169;47.240;11.312;2023-03-24T00:38:31;7.00;;;3.30;;
75589;SDS011;64169;47.240;11.312;2023-03-24T00:40:58;10.05;;;4.00;;
75589;SDS011;64169;47.240;11.312;2023-03-24T00:43:25;7.85;;;3.33;;
75589;SDS011;64169;47.240;11.312;2023-03-24T00:45:56;9.05;;;4.03;;
75589;SDS011;64169;47.240;11.312;2023-03-24T00:48:25;7.65;;;4.05;;
75589;SDS011;64169;47.240;11.312;2023-03-24T00:50:51;9.07;;;4.10;;
75589;SDS011;64169;47.240;11.312;2023-03-24T00:53:16;8.02;;;3.38;;
75589;SDS011;64169;47.240;11.312;2023-03-24T00:55:43;8.25;;;3.58;;
75589;SDS011;64169;47.240;11.312;2023-03-24T00:58:15;8.82;;;3.47;;
75589;SDS011;64169;47.240;11.312;2023-03-24T01:00:44;8.63;;;3.60;;
75589;SDS011;64169;47.240;11.312;2023-03-24T01:03:10;7.78;;;3.05;;
75589;SDS011;64169;47.240;11.312;2023-03-24T01:05:35;6.93;;;2.97;;
75589;SDS011;64169;47.240;11.312;2023-03-24T01:08:01;8.05;;;3.08;;
75589;SDS011;64169;47.240;11.312;2023-03-24T01:10:28;7.55;;;3.38;;
75589;SDS011;64169;47.240;11.312;2023-03-24T01:12:56;8.60;;;3.33;;
75589;SDS011;64169;47.240;11.312;2023-03-24T01:15:24;7.68;;;3.15;;
75589;SDS011;64169;47.240;11.312;2023-03-24T01:17:54;8.25;;;3.90;;
75589;SDS011;64169;47.240;11.312;2023-03-24T01:20:20;11.13;;;3.90;;
75589;SDS011;64169;47.240;11.312;2023-03-24T01:22:47;8.60;;;3.72;;
75589;SDS011;64169;47.240;11.312;2023-03-24T01:25:18;8.48;;;4.07;;
75589;SDS011;64169;47.240;11.312;2023-03-24T01:27:46;8.18;;;3.25;;
75589;SDS011;64169;47.240;11.312;2023-03-24T01:30:13;9.32;;;3.50;;
75589;SDS011;64169;47.240;11.312;2023-03-24T01:32:40;9.93;;;3.83;;
75589;SDS011;64169;47.240;11.312;2023-03-24T01:35:06;11.00;;;3.83;;
75589;SDS011;64169;47.240;11.312;2023-03-24T01:37:32;9.07;;;3.75;;
75589;SDS011;64169;47.240;11.312;2023-03-24T01:39:57;7.50;;;3.30;;
75589;SDS011;64169;47.240;11.312;2023-03-24T01:42:23;8.55;;;3.35;;
75589;SDS011;64169;47.240;11.312;2023-03-24T01:44:50;9.18;;;3.58;;
75589;SDS011;64169;47.240;11.312;2023-03-24T01:47:18;8.15;;;3.65;;
75589;SDS011;64169;47.240;11.312;2023-03-24T01:52:25;7.93;;;3.47;;
75589;SDS011;64169;47.240;11.312;2023-03-24T01:54:53;8.48;;;3.97;;
75589;SDS011;64169;47.240;11.312;2023-03-24T01:57:34;6.53;;;3.22;;
75589;SDS011;64169;47.240;11.312;2023-03-24T02:00:06;8.13;;;3.60;;
75589;SDS011;64169;47.240;11.312;2023-03-24T02:02:34;9.27;;;3.70;;
75589;SDS011;64169;47.240;11.312;2023-03-24T02:05:04;8.98;;;3.97;;
75589;SDS011;64169;47.240;11.312;2023-03-24T02:07:43;11.95;;;3.30;;
75589;SDS011;64169;47.240;11.312;2023-03-24T02:10:13;8.93;;;3.60;;
75589;SDS011;64169;47.240;11.312;2023-03-24T02:12:40;9.23;;;4.07;;
75589;SDS011;64169;47.240;11.312;2023-03-24T02:15:07;7.90;;;3.63;;
75589;SDS011;64169;47.240;11.312;2023-03-24T02:50:35;7.60;;;3.70;;
75589;SDS011;64169;47.240;11.312;2023-03-24T02:58:34;7.88;;;3.47;;
75589;SDS011;64169;47.240;11.312;2023-03-24T03:01:18;7.90;;;3.22;;
75589;SDS011;64169;47.240;11.312;2023-03-24T03:03:52;9.50;;;3.65;;
75589;SDS011;64169;47.240;11.312;2023-03-24T03:06:22;7.45;;;3.33;;
75589;SDS011;64169;47.240;11.312;2023-03-24T03:08:51;8.85;;;3.85;;
75589;SDS011;64169;47.240;11.312;2023-03-24T03:11:20;10.40;;;3.55;;
75589;SDS011;64169;47.240;11.312;2023-03-24T03:13:47;7.38;;;3.45;;
75589;SDS011;64169;47.240;11.312;2023-03-24T03:19:04;10.30;;;3.92;;
75589;SDS011;64169;47.240;11.312;2023-03-24T03:21:35;8.52;;;3.50;;
75589;SDS011;64169;47.240;11.312;2023-03-24T03:24:07;7.82;;;3.22;;
75589;SDS011;64169;47.240;11.312;2023-03-24T03:26:35;8.20;;;4.22;;
75589;SDS011;64169;47.240;11.312;2023-03-24T03:29:04;7.72;;;3.35;;
75589;SDS011;64169;47.240;11.312;2023-03-24T03:31:40;8.63;;;4.43;;
75589;SDS011;64169;47.240;11.312;2023-03-24T03:34:11;8.15;;;3.95;;
75589;SDS011;64169;47.240;11.312;2023-03-24T03:36:59;8.60;;;3.50;;
75589;SDS011;64169;47.240;11.312;2023-03-24T03:39:55;9.05;;;4.00;;
75589;SDS011;64169;47.240;11.312;2023-03-24T03:42:23;8.70;;;3.50;;
75589;SDS011;64169;47.240;11.312;2023-03-24T03:44:48;7.97;;;3.28;;
75589;SDS011;64169;47.240;11.312;2023-03-24T03:47:14;6.70;;;3.78;;
75589;SDS011;64169;47.240;11.312;2023-03-24T03:49:40;10.52;;;4.25;;
75589;SDS011;64169;47.240;11.312;2023-03-24T03:52:06;9.68;;;4.07;;
75589;SDS011;64169;47.240;11.312;2023-03-24T03:54:32;9.77;;;4.40;;
75589;SDS011;64169;47.240;11.312;2023-03-24T03:56:58;10.60;;;4.97;;
75589;SDS011;64169;47.240;11.312;2023-03-24T03:59:34;8.82;;;4.05;;
75589;SDS011;64169;47.240;11.312;2023-03-24T04:10:21;10.00;;;4.30;;
75589;SDS011;64169;47.240;11.312;2023-03-24T04:28:38;8.90;;;4.20;;
75589;SDS011;64169;47.240;11.312;2023-03-24T04:31:12;9.30;;;4.20;;
75589;SDS011;64169;47.240;11.312;2023-03-24T04:36:20;9.07;;;4.50;;
75589;SDS011;64169;47.240;11.312;2023-03-24T04:38:51;8.90;;;4.30;;
75589;SDS011;64169;47.240;11.312;2023-03-24T04:41:19;11.65;;;4.88;;
75589;SDS011;64169;47.240;11.312;2023-03-24T04:43:45;9.68;;;4.63;;
75589;SDS011;64169;47.240;11.312;2023-03-24T04:46:11;9.88;;;5.05;;
75589;SDS011;64169;47.240;11.312;2023-03-24T04:48:41;9.25;;;4.78;;
75589;SDS011;64169;47.240;11.312;2023-03-24T04:51:08;10.80;;;4.88;;
75589;SDS011;64169;47.240;11.312;2023-03-24T04:53:36;11.73;;;4.53;;
75589;SDS011;64169;47.240;11.312;2023-03-24T04:56:06;10.27;;;5.00;;
75589;SDS011;64169;47.240;11.312;2023-03-24T04:58:35;9.30;;;4.50;;
75589;SDS011;64169;47.240;11.312;2023-03-24T05:01:00;9.43;;;3.88;;
75589;SDS011;64169;47.240;11.312;2023-03-24T05:03:27;9.02;;;4.35;;
75589;SDS011;64169;47.240;11.312;2023-03-24T05:05:53;9.52;;;4.70;;
75589;SDS011;64169;47.240;11.312;2023-03-24T05:08:19;11.80;;;5.05;;
75589;SDS011;64169;47.240;11.312;2023-03-24T05:10:45;9.77;;;4.88;;
75589;SDS011;64169;47.240;11.312;2023-03-24T05:13:10;11.40;;;5.22;;
75589;SDS011;64169;47.240;11.312;2023-03-24T05:15:36;11.23;;;5.32;;
75589;SDS011;64169;47.240;11.312;2023-03-24T05:18:02;10.73;;;5.13;;
75589;SDS011;64169;47.240;11.312;2023-03-24T05:20:28;8.75;;;4.45;;
75589;SDS011;64169;47.240;11.312;2023-03-24T05:22:54;8.75;;;4.43;;
75589;SDS011;64169;47.240;11.312;2023-03-24T05:25:20;8.82;;;4.13;;
75589;SDS011;64169;47.240;11.312;2023-03-24T05:27:45;9.23;;;4.22;;
75589;SDS011;64169;47.240;11.312;2023-03-24T05:30:11;11.15;;;4.40;;
75589;SDS011;64169;47.240;11.312;2023-03-24T05:32:37;9.77;;;4.10;;
75589;SDS011;64169;47.240;11.312;2023-03-24T05:35:03;9.43;;;4.07;;
75589;SDS011;64169;47.240;11.312;2023-03-24T05:37:29;9.52;;;4.20;;
75589;SDS011;64169;47.240;11.312;2023-03-24T05:39:54;10.60;;;5.15;;
75589;SDS011;64169;47.240;11.312;2023-03-24T05:42:20;9.23;;;4.15;;
75589;SDS011;64169;47.240;11.312;2023-03-24T05:44:45;11.57;;;5.65;;
75589;SDS011;64169;47.240;11.312;2023-03-24T05:47:11;11.20;;;5.22;;
75589;SDS011;64169;47.240;11.312;2023-03-24T05:49:40;10.70;;;4.85;;
75589;SDS011;64169;47.240;11.312;2023-03-24T05:52:08;10.90;;;4.30;;
75589;SDS011;64169;47.240;11.312;2023-03-24T05:54:34;11.32;;;5.43;;
75589;SDS011;64169;47.240;11.312;2023-03-24T05:57:00;12.52;;;6.82;;
75589;SDS011;64169;47.240;11.312;2023-03-24T05:59:26;11.32;;;5.65;;
75589;SDS011;64169;47.240;11.312;2023-03-24T06:01:52;12.27;;;5.47;;
75589;SDS011;64169;47.240;11.312;2023-03-24T06:04:21;14.23;;;7.07;;
75589;SDS011;64169;47.240;11.312;2023-03-24T06:06:47;17.05;;;7.35;;
75589;SDS011;64169;47.240;11.312;2023-03-24T06:09:12;14.90;;;6.13;;
75589;SDS011;64169;47.240;11.312;2023-03-24T06:11:41;13.60;;;6.35;;
75589;SDS011;64169;47.240;11.312;2023-03-24T06:14:09;16.15;;;6.88;;
75589;SDS011;64169;47.240;11.312;2023-03-24T06:16:34;14.85;;;6.63;;
75589;SDS011;64169;47.240;11.312;2023-03-24T06:19:03;10.50;;;5.10;;
75589;SDS011;64169;47.240;11.312;2023-03-24T06:21:30;11.18;;;5.40;;
75589;SDS011;64169;47.240;11.312;2023-03-24T06:23:56;10.55;;;4.88;;
75589;SDS011;64169;47.240;11.312;2023-03-24T06:26:22;16.55;;;7.28;;
75589;SDS011;64169;47.240;11.312;2023-03-24T06:28:48;13.45;;;5.78;;
75589;SDS011;64169;47.240;11.312;2023-03-24T06:31:16;13.50;;;5.82;;
75589;SDS011;64169;47.240;11.312;2023-03-24T06:33:44;12.05;;;5.45;;
75589;SDS011;64169;47.240;11.312;2023-03-24T06:36:10;14.02;;;5.85;;
75589;SDS011;64169;47.240;11.312;2023-03-24T06:38:37;12.32;;;5.15;;
75589;SDS011;64169;47.240;11.312;2023-03-24T06:41:03;8.98;;;4.25;;
75589;SDS011;64169;47.240;11.312;2023-03-24T06:43:29;13.98;;;4.80;;
75589;SDS011;64169;47.240;11.312;2023-03-24T06:45:55;11.98;;;5.53;;
75589;SDS011;64169;47.240;11.312;2023-03-24T06:48:21;11.85;;;4.15;;
75589;SDS011;64169;47.240;11.312;2023-03-24T06:50:46;11.65;;;5.28;;
75589;SDS011;64169;47.240;11.312;2023-03-24T06:53:12;12.13;;;5.10;;
75589;SDS011;64169;47.240;11.312;2023-03-24T06:55:37;9.88;;;5.50;;
75589;SDS011;64169;47.240;11.312;2023-03-24T06:58:03;9.98;;;5.07;;
75589;SDS011;64169;47.240;11.312;2023-03-24T07:00:28;11.02;;;4.72;;
75589;SDS011;64169;47.240;11.312;2023-03-24T07:02:54;9.23;;;4.35;;
75589;SDS011;64169;47.240;11.312;2023-03-24T07:05:20;8.27;;;4.00;;
75589;SDS011;64169;47.240;11.312;2023-03-24T07:07:46;14.88;;;5.00;;
75589;SDS011;64169;47.240;11.312;2023-03-24T07:10:12;8.65;;;4.05;;
75589;SDS011;64169;47.240;11.312;2023-03-24T07:12:38;11.18;;;4.47;;
75589;SDS011;64169;47.240;11.312;2023-03-24T07:15:04;9.40;;;4.13;;
75589;SDS011;64169;47.240;11.312;2023-03-24T07:17:32;12.98;;;4.85;;
75589;SDS011;64169;47.240;11.312;2023-03-24T07:19:57;7.93;;;3.80;;
75589;SDS011;64169;47.240;11.312;2023-03-24T07:22:23;9.80;;;4.35;;
75589;SDS011;64169;47.240;11.312;2023-03-24T07:24:48;8.80;;;4.50;;
75589;SDS011;64169;47.240;11.312;2023-03-24T07:27:14;10.25;;;4.25;;
75589;SDS011;64169;47.240;11.312;2023-03-24T07:29:39;8.23;;;4.20;;
75589;SDS011;64169;47.240;11.312;2023-03-24T07:32:05;13.20;;;4.85;;
75589;SDS011;64169;47.240;11.312;2023-03-24T07:34:32;10.32;;;4.45;;
75589;SDS011;64169;47.240;11.312;2023-03-24T07:36:57;13.57;;;5.82;;
75589;SDS011;64169;47.240;11.312;2023-03-24T07:39:23;13.43;;;5.05;;
75589;SDS011;64169;47.240;11.312;2023-03-24T07:41:48;8.90;;;4.45;;
75589;SDS011;64169;47.240;11.312;2023-03-24T07:44:14;9.95;;;4.82;;
75589;SDS011;64169;47.240;11.312;2023-03-24T07:46:40;9.35;;;5.03;;
75589;SDS011;64169;47.240;11.312;2023-03-24T07:49:06;9.98;;;4.55;;
75589;SDS011;64169;47.240;11.312;2023-03-24T07:51:31;8.68;;;4.35;;
75589;SDS011;64169;47.240;11.312;2023-03-24T07:53:57;10.30;;;4.93;;
75589;SDS011;64169;47.240;11.312;2023-03-24T07:56:22;10.25;;;4.85;;
75589;SDS011;64169;47.240;11.312;2023-03-24T07:58:48;8.95;;;4.30;;
75589;SDS011;64169;47.240;11.312;2023-03-24T08:01:13;10.00;;;4.32;;
75589;SDS011;64169;47.240;11.312;2023-03-24T08:03:39;11.15;;;4.10;;
75589;SDS011;64169;47.240;11.312;2023-03-24T08:06:09;14.07;;;7.00;;
75589;SDS011;64169;47.240;11.312;2023-03-24T08:08:35;14.85;;;5.75;;
75589;SDS011;64169;47.240;11.312;2023-03-24T08:11:01;11.98;;;5.72;;
75589;SDS011;64169;47.240;11.312;2023-03-24T08:13:30;10.43;;;4.50;;
75589;SDS011;64169;47.240;11.312;2023-03-24T08:15:56;9.77;;;5.00;;
75589;SDS011;64169;47.240;11.312;2023-03-24T08:18:21;7.88;;;4.57;;
75589;SDS011;64169;47.240;11.312;2023-03-24T08:20:48;10.68;;;5.25;;
75589;SDS011;64169;47.240;11.312;2023-03-24T08:23:14;11.77;;;5.07;;
75589;SDS011;64169;47.240;11.312;2023-03-24T08:25:40;10.52;;;5.18;;
75589;SDS011;64169;47.240;11.312;2023-03-24T08:28:06;10.13;;;5.07;;
75589;SDS011;64169;47.240;11.312;2023-03-24T08:30:31;9.63;;;4.95;;
75589;SDS011;64169;47.240;11.312;2023-03-24T08:32:58;9.07;;;4.53;;
75589;SDS011;64169;47.240;11.312;2023-03-24T08:35:29;10.23;;;5.25;;
75589;SDS011;64169;47.240;11.312;2023-03-24T08:37:59;10.25;;;5.00;;
75589;SDS011;64169;47.240;11.312;2023-03-24T08:40:25;12.45;;;5.15;;
75589;SDS011;64169;47.240;11.312;2023-03-24T08:42:53;11.20;;;5.47;;
75589;SDS011;64169;47.240;11.312;2023-03-24T08:45:21;9.38;;;4.45;;
75589;SDS011;64169;47.240;11.312;2023-03-24T08:47:48;10.85;;;4.32;;
75589;SDS011;64169;47.240;11.312;2023-03-24T08:50:16;9.25;;;5.05;;
75589;SDS011;64169;47.240;11.312;2023-03-24T08:52:42;10.80;;;5.28;;
75589;SDS011;64169;47.240;11.312;2023-03-24T08:55:12;8.73;;;4.80;;
75589;SDS011;64169;47.240;11.312;2023-03-24T08:57:38;10.60;;;5.45;;
75589;SDS011;64169;47.240;11.312;2023-03-24T09:00:03;9.82;;;4.55;;
75589;SDS011;64169;47.240;11.312;2023-03-24T09:02:38;9.93;;;4.78;;
75589;SDS011;64169;47.240;11.312;2023-03-24T09:05:04;9.63;;;4.85;;
75589;SDS011;64169;47.240;11.312;2023-03-24T09:07:30;11.60;;;4.65;;
75589;SDS011;64169;47.240;11.312;2023-03-24T09:09:55;10.23;;;4.57;;
75589;SDS011;64169;47.240;11.312;2023-03-24T09:12:21;8.82;;;4.45;;
75589;SDS011;64169;47.240;11.312;2023-03-24T09:14:47;9.38;;;4.40;;
75589;SDS011;64169;47.240;11.312;2023-03-24T09:17:13;11.35;;;5.45;;
75589;SDS011;64169;47.240;11.312;2023-03-24T09:19:38;10.20;;;4.55;;
75589;SDS011;64169;47.240;11.312;2023-03-24T09:22:04;9.05;;;4.72;;
75589;SDS011;64169;47.240;11.312;2023-03-24T09:24:30;9.70;;;4.80;;
75589;SDS011;64169;47.240;11.312;2023-03-24T09:26:55;13.63;;;5.45;;
75589;SDS011;64169;47.240;11.312;2023-03-24T09:29:21;10.98;;;5.57;;
75589;SDS011;64169;47.240;11.312;2023-03-24T09:31:46;10.40;;;4.85;;
75589;SDS011;64169;47.240;11.312;2023-03-24T09:34:12;10.57;;;5.15;;
75589;SDS011;64169;47.240;11.312;2023-03-24T09:36:38;12.02;;;5.97;;
75589;SDS011;64169;47.240;11.312;2023-03-24T09:39:03;13.25;;;5.97;;
75589;SDS011;64169;47.240;11.312;2023-03-24T09:41:29;9.32;;;4.80;;
75589;SDS011;64169;47.240;11.312;2023-03-24T09:46:34;11.02;;;4.60;;
75589;SDS011;64169;47.240;11.312;2023-03-24T09:49:02;10.95;;;4.63;;
75589;SDS011;64169;47.240;11.312;2023-03-24T09:51:45;9.75;;;4.70;;
75589;SDS011;64169;47.240;11.312;2023-03-24T09:54:18;12.63;;;5.20;;
75589;SDS011;64169;47.240;11.312;2023-03-24T09:56:47;9.48;;;4.70;;
75589;SDS011;64169;47.240;11.312;2023-03-24T10:01:45;11.63;;;4.90;;
75589;SDS011;64169;47.240;11.312;2023-03-24T10:04:14;10.82;;;5.35;;
75589;SDS011;64169;47.240;11.312;2023-03-24T10:06:43;11.80;;;5.93;;
75589;SDS011;64169;47.240;11.312;2023-03-24T10:09:28;13.40;;;6.25;;
75589;SDS011;64169;47.240;11.312;2023-03-24T10:14:39;11.23;;;5.50;;
75589;SDS011;64169;47.240;11.312;2023-03-24T10:23:13;12.18;;;5.60;;
75589;SDS011;64169;47.240;11.312;2023-03-24T10:25:25;14.43;;;4.90;;
75589;SDS011;64169;47.240;11.312;2023-03-24T10:27:56;13.75;;;6.95;;
75589;SDS011;64169;47.240;11.312;2023-03-24T10:30:25;10.77;;;5.55;;
75589;SDS011;64169;47.240;11.312;2023-03-24T10:32:53;9.95;;;5.53;;
75589;SDS011;64169;47.240;11.312;2023-03-24T10:35:24;12.20;;;5.55;;
75589;SDS011;64169;47.240;11.312;2023-03-24T10:37:52;10.77;;;5.50;;
75589;SDS011;64169;47.240;11.312;2023-03-24T10:40:22;11.43;;;5.47;;
75589;SDS011;64169;47.240;11.312;2023-03-24T10:42:51;10.50;;;6.05;;
75589;SDS011;64169;47.240;11.312;2023-03-24T10:45:19;10.60;;;5.30;;
75589;SDS011;64169;47.240;11.312;2023-03-24T10:47:50;13.05;;;5.80;;
75589;SDS011;64169;47.240;11.312;2023-03-24T10:50:17;11.43;;;5.18;;
75589;SDS011;64169;47.240;11.312;2023-03-24T10:52:43;10.20;;;5.30;;
75589;SDS011;64169;47.240;11.312;2023-03-24T10:55:14;11.55;;;5.70;;
75589;SDS011;64169;47.240;11.312;2023-03-24T10:57:43;12.88;;;5.82;;
75589;SDS011;64169;47.240;11.312;2023-03-24T11:03:09;16.17;;;6.55;;
75589;SDS011;64169;47.240;11.312;2023-03-24T11:05:37;13.52;;;6.30;;
75589;SDS011;64169;47.240;11.312;2023-03-24T11:08:37;16.08;;;6.45;;
75589;SDS011;64169;47.240;11.312;2023-03-24T11:10:55;14.68;;;7.25;;
75589;SDS011;64169;47.240;11.312;2023-03-24T11:13:31;13.98;;;7.80;;
75589;SDS011;64169;47.240;11.312;2023-03-24T11:18:54;13.13;;;7.20;;
75589;SDS011;64169;47.240;11.312;2023-03-24T11:21:20;14.45;;;8.52;;
75589;SDS011;64169;47.240;11.312;2023-03-24T11:23:46;15.52;;;8.00;;
75589;SDS011;64169;47.240;11.312;2023-03-24T11:26:15;15.07;;;8.57;;
75589;SDS011;64169;47.240;11.312;2023-03-24T11:31:19;15.10;;;8.13;;
75589;SDS011;64169;47.240;11.312;2023-03-24T11:39:32;16.67;;;7.55;;
75589;SDS011;64169;47.240;11.312;2023-03-24T11:42:25;14.88;;;7.32;;
75589;SDS011;64169;47.240;11.312;2023-03-24T11:44:45;15.60;;;7.00;;
75589;SDS011;64169;47.240;11.312;2023-03-24T11:52:38;12.48;;;6.30;;
75589;SDS011;64169;47.240;11.312;2023-03-24T11:55:12;14.15;;;6.03;;
75589;SDS011;64169;47.240;11.312;2023-03-24T11:58:02;16.02;;;6.85;;
75589;SDS011;64169;47.240;11.312;2023-03-24T12:09:06;12.82;;;6.25;;
75589;SDS011;64169;47.240;11.312;2023-03-24T12:14:38;11.45;;;5.53;;
75589;SDS011;64169;47.240;11.312;2023-03-24T12:17:12;13.20;;;7.22;;
75589;SDS011;64169;47.240;11.312;2023-03-24T12:19:56;13.63;;;6.28;;
75589;SDS011;64169;47.240;11.312;2023-03-24T12:25:47;13.45;;;6.25;;
75589;SDS011;64169;47.240;11.312;2023-03-24T12:28:28;13.15;;;7.10;;
75589;SDS011;64169;47.240;11.312;2023-03-24T12:31:07;13.27;;;6.35;;
75589;SDS011;64169;47.240;11.312;2023-03-24T12:39:09;13.07;;;6.30;;
75589;SDS011;64169;47.240;11.312;2023-03-24T12:42:11;11.90;;;6.70;;
75589;SDS011;64169;47.240;11.312;2023-03-24T12:58:25;14.48;;;7.25;;
75589;SDS011;64169;47.240;11.312;2023-03-24T13:01:05;13.63;;;7.10;;
75589;SDS011;64169;47.240;11.312;2023-03-24T13:03:45;11.40;;;6.75;;
75589;SDS011;64169;47.240;11.312;2023-03-24T13:09:57;12.52;;;6.88;;
75589;SDS011;64169;47.240;11.312;2023-03-24T13:19:55;14.20;;;7.82;;
75589;SDS011;64169;47.240;11.312;2023-03-24T13:22:21;13.43;;;7.88;;
75589;SDS011;64169;47.240;11.312;2023-03-24T13:24:48;13.05;;;7.05;;
75589;SDS011;64169;47.240;11.312;2023-03-24T13:27:25;14.52;;;6.82;;
75589;SDS011;64169;47.240;11.312;2023-03-24T13:32:42;13.45;;;7.28;;
75589;SDS011;64169;47.240;11.312;2023-03-24T13:38:16;13.65;;;6.68;;
75589;SDS011;64169;47.240;11.312;2023-03-24T13:40:46;14.82;;;7.30;;
75589;SDS011;64169;47.240;11.312;2023-03-24T13:43:33;14.45;;;7.40;;
75589;SDS011;64169;47.240;11.312;2023-03-24T13:45:59;13.82;;;7.75;;
75589;SDS011;64169;47.240;11.312;2023-03-24T13:48:36;13.45;;;7.22;;
75589;SDS011;64169;47.240;11.312;2023-03-24T13:59:05;15.38;;;7.30;;
75589;SDS011;64169;47.240;11.312;2023-03-24T14:05:09;13.35;;;7.47;;
75589;SDS011;64169;47.240;11.312;2023-03-24T14:07:31;14.52;;;6.85;;
75589;SDS011;64169;47.240;11.312;2023-03-24T14:12:50;12.10;;;7.10;;
75589;SDS011;64169;47.240;11.312;2023-03-24T14:15:17;14.88;;;8.27;;
75589;SDS011;64169;47.240;11.312;2023-03-24T14:18:13;15.88;;;8.60;;
75589;SDS011;64169;47.240;11.312;2023-03-24T14:26:02;14.13;;;7.32;;
75589;SDS011;64169;47.240;11.312;2023-03-24T14:28:35;13.43;;;7.28;;
75589;SDS011;64169;47.240;11.312;2023-03-24T14:31:08;13.68;;;7.38;;
75589;SDS011;64169;47.240;11.312;2023-03-24T14:33:40;15.75;;;7.55;;
75589;SDS011;64169;47.240;11.312;2023-03-24T14:39:08;13.35;;;7.40;;
75589;SDS011;64169;47.240;11.312;2023-03-24T14:41:49;12.80;;;7.30;;
75589;SDS011;64169;47.240;11.312;2023-03-24T14:47:24;12.95;;;6.30;;
75589;SDS011;64169;47.240;11.312;2023-03-24T14:49:54;13.63;;;7.05;;
75589;SDS011;64169;47.240;11.312;2023-03-24T14:52:27;11.13;;;6.93;;
75589;SDS011;64169;47.240;11.312;2023-03-24T14:55:02;13.32;;;7.50;;
75589;SDS011;64169;47.240;11.312;2023-03-24T14:57:31;13.80;;;6.55;;
75589;SDS011;64169;47.240;11.312;2023-03-24T15:00:03;14.68;;;7.68;;
75589;SDS011;64169;47.240;11.312;2023-03-24T15:02:46;13.00;;;6.30;;
75589;SDS011;64169;47.240;11.312;2023-03-24T15:07:38;13.77;;;7.32;;
75589;SDS011;64169;47.240;11.312;2023-03-24T15:10:17;14.07;;;6.38;;
75589;SDS011;64169;47.240;11.312;2023-03-24T15:12:44;15.48;;;7.22;;
75589;SDS011;64169;47.240;11.312;2023-03-24T15:15:22;13.30;;;6.90;;
75589;SDS011;64169;47.240;11.312;2023-03-24T15:17:48;14.98;;;6.20;;
75589;SDS011;64169;47.240;11.312;2023-03-24T15:20:28;13.93;;;7.70;;
75589;SDS011;64169;47.240;11.312;2023-03-24T15:23:03;12.68;;;6.07;;
75589;SDS011;64169;47.240;11.312;2023-03-24T15:25:32;15.60;;;6.53;;
75589;SDS011;64169;47.240;11.312;2023-03-24T15:27:57;13.13;;;6.30;;
75589;SDS011;64169;47.240;11.312;2023-03-24T15:30:23;16.95;;;7.78;;
75589;SDS011;64169;47.240;11.312;2023-03-24T15:32:49;15.18;;;7.18;;
75589;SDS011;64169;47.240;11.312;2023-03-24T15:35:20;15.50;;;7.53;;
75589;SDS011;64169;47.240;11.312;2023-03-24T15:37:50;15.00;;;6.47;;
75589;SDS011;64169;47.240;11.312;2023-03-24T15:42:52;17.55;;;7.72;;
75589;SDS011;64169;47.240;11.312;2023-03-24T15:45:28;14.00;;;6.45;;
75589;SDS011;64169;47.240;11.312;2023-03-24T15:47:55;12.43;;;5.50;;
75589;SDS011;64169;47.240;11.312;2023-03-24T15:53:39;11.07;;;5.10;;
75589;SDS011;64169;47.240;11.312;2023-03-24T15:55:59;9.35;;;4.90;;
75589;SDS011;64169;47.240;11.312;2023-03-24T15:58:27;10.48;;;5.20;;
75589;SDS011;64169;47.240;11.312;2023-03-24T16:00:56;11.98;;;5.25;;
75589;SDS011;64169;47.240;11.312;2023-03-24T16:05:54;12.63;;;6.10;;
75589;SDS011;64169;47.240;11.312;2023-03-24T16:08:23;11.25;;;4.95;;
75589;SDS011;64169;47.240;11.312;2023-03-24T16:11:01;10.52;;;4.93;;
75589;SDS011;64169;47.240;11.312;2023-03-24T16:13:31;11.80;;;5.47;;
75589;SDS011;64169;47.240;11.312;2023-03-24T16:15:58;10.57;;;5.25;;
75589;SDS011;64169;47.240;11.312;2023-03-24T16:20:56;8.50;;;4.93;;
75589;SDS011;64169;47.240;11.312;2023-03-24T16:23:22;11.00;;;5.22;;
75589;SDS011;64169;47.240;11.312;2023-03-24T16:25:47;12.55;;;5.05;;
75589;SDS011;64169;47.240;11.312;2023-03-24T16:28:13;12.30;;;5.78;;
75589;SDS011;64169;47.240;11.312;2023-03-24T16:30:42;11.45;;;4.80;;
75589;SDS011;64169;47.240;11.312;2023-03-24T16:33:08;12.40;;;5.38;;
75589;SDS011;64169;47.240;11.312;2023-03-24T16:35:34;11.23;;;4.93;;
75589;SDS011;64169;47.240;11.312;2023-03-24T16:38:00;11.45;;;5.20;;
75589;SDS011;64169;47.240;11.312;2023-03-24T16:40:31;10.35;;;4.45;;
75589;SDS011;64169;47.240;11.312;2023-03-24T16:42:59;10.63;;;5.22;;
75589;SDS011;64169;47.240;11.312;2023-03-24T16:45:26;9.40;;;4.22;;
75589;SDS011;64169;47.240;11.312;2023-03-24T16:47:55;10.10;;;4.88;;
75589;SDS011;64169;47.240;11.312;2023-03-24T16:53:00;3.00;;;0.85;;
75589;SDS011;64169;47.240;11.312;2023-03-24T16:55:27;3.30;;;0.60;;
75589;SDS011;64169;47.240;11.312;2023-03-24T16:57:53;1.27;;;0.60;;
75589;SDS011;64169;47.240;11.312;2023-03-24T17:00:18;2.90;;;0.75;;
75589;SDS011;64169;47.240;11.312;2023-03-24T17:02:44;3.25;;;0.55;;
75589;SDS011;64169;47.240;11.312;2023-03-24T17:07:46;3.33;;;1.17;;
75589;SDS011;64169;47.240;11.312;2023-03-24T17:10:11;2.90;;;0.95;;
75589;SDS011;64169;47.240;11.312;2023-03-24T17:12:37;1.45;;;0.40;;
75589;SDS011;64169;47.240;11.312;2023-03-24T17:15:03;1.77;;;0.40;;
75589;SDS011;64169;47.240;11.312;2023-03-24T17:17:28;1.33;;;0.50;;
75589;SDS011;64169;47.240;11.312;2023-03-24T17:19:54;1.08;;;0.28;;
75589;SDS011;64169;47.240;11.312;2023-03-24T17:22:21;1.80;;;0.70;;
75589;SDS011;64169;47.240;11.312;2023-03-24T17:24:49;2.40;;;0.82;;
75589;SDS011;64169;47.240;11.312;2023-03-24T17:27:16;3.25;;;0.80;;
75589;SDS011;64169;47.240;11.312;2023-03-24T17:29:43;3.05;;;0.70;;
75589;SDS011;64169;47.240;11.312;2023-03-24T17:32:09;3.42;;;0.90;;
75589;SDS011;64169;47.240;11.312;2023-03-24T17:34:35;4.25;;;1.20;;
75589;SDS011;64169;47.240;11.312;2023-03-24T17:37:02;3.92;;;1.00;;
75589;SDS011;64169;47.240;11.312;2023-03-24T17:39:28;3.13;;;1.05;;
75589;SDS011;64169;47.240;11.312;2023-03-24T17:41:54;4.07;;;1.13;;
75589;SDS011;64169;47.240;11.312;2023-03-24T17:44:22;4.97;;;1.58;;
75589;SDS011;64169;47.240;11.312;2023-03-24T17:46:48;3.33;;;1.10;;
75589;SDS011;64169;47.240;11.312;2023-03-24T17:49:13;2.45;;;0.70;;
75589;SDS011;64169;47.240;11.312;2023-03-24T17:51:38;3.72;;;1.20;;
75589;SDS011;64169;47.240;11.312;2023-03-24T17:54:04;3.05;;;0.90;;